sensor_id;sensor_type;location;lat;lon;timestamp;P1;durP1;ratioP1;P2;durP2;ratioP2
23543;SDS011;11950;51.230;4.012;2024-02-21T00:01:57;6.22;;;2.17;;
23543;SDS011;11950;51.230;4.012;2024-02-21T00:04:23;4.40;;;1.80;;
23543;SDS011;11950;51.230;4.012;2024-02-21T00:06:49;3.20;;;1.80;;
23543;SDS011;11950;51.230;4.012;2024-02-21T00:09:15;6.60;;;2.00;;
23543;SDS011;11950;51.230;4.012;2024-02-21T00:11:42;3.53;;;1.50;;
23543;SDS011;11950;51.230;4.012;2024-02-21T00:14:08;5.55;;;1.58;;
23543;SDS011;11950;51.230;4.012;2024-02-21T00:16:34;5.22;;;1.90;;
23543;SDS011;11950;51.230;4.012;2024-02-21T00:19:00;4.95;;;1.80;;
23543;SDS011;11950;51.230;4.012;2024-02-21T00:21:26;6.25;;;1.83;;
23543;SDS011;11950;51.230;4.012;2024-02-21T00:23:53;4.85;;;1.50;;
23543;SDS011;11950;51.230;4.012;2024-02-21T00:26:19;6.50;;;1.60;;
23543;SDS011;11950;51.230;4.012;2024-02-21T00:28:45;6.47;;;1.70;;
23543;SDS011;11950;51.230;4.012;2024-02-21T00:31:12;5.57;;;1.55;;
23543;SDS011;11950;51.230;4.012;2024-02-21T00:33:38;3.67;;;1.63;;
23543;SDS011;11950;51.230;4.012;2024-02-21T00:36:04;5.85;;;1.90;;
23543;SDS011;11950;51.230;4.012;2024-02-21T00:38:30;3.35;;;1.60;;
23543;SDS011;11950;51.230;4.012;2024-02-21T00:40:57;6.80;;;1.95;;
23543;SDS011;11950;51.230;4.012;2024-02-21T00:43:23;3.47;;;1.73;;
23543;SDS011;11950;51.230;4.012;2024-02-21T00:45:50;2.47;;;1.40;;
23543;SDS011;11950;51.230;4.012;2024-02-21T00:48:16;6.70;;;1.80;;
23543;SDS011;11950;51.230;4.012;2024-02-21T00:50:42;3.20;;;1.40;;
23543;SDS011;11950;51.230;4.012;2024-02-21T00:53:09;3.47;;;1.55;;
23543;SDS011;11950;51.230;4.012;2024-02-21T00:55:35;4.60;;;1.30;;
23543;SDS011;11950;51.230;4.012;2024-02-21T00:58:01;2.83;;;1.67;;
23543;SDS011;11950;51.230;4.012;2024-02-21T01:00:28;4.97;;;1.55;;
23543;SDS011;11950;51.230;4.012;2024-02-21T01:02:54;6.25;;;1.60;;
23543;SDS011;11950;51.230;4.012;2024-02-21T01:05:20;2.38;;;1.17;;
23543;SDS011;11950;51.230;4.012;2024-02-21T01:07:48;3.50;;;1.33;;
23543;SDS011;11950;51.230;4.012;2024-02-21T01:10:14;4.50;;;1.70;;
23543;SDS011;11950;51.230;4.012;2024-02-21T01:12:40;4.85;;;1.50;;
23543;SDS011;11950;51.230;4.012;2024-02-21T01:15:07;3.15;;;1.50;;
23543;SDS011;11950;51.230;4.012;2024-02-21T01:17:33;7.60;;;1.73;;
23543;SDS011;11950;51.230;4.012;2024-02-21T01:20:00;3.28;;;1.80;;
23543;SDS011;11950;51.230;4.012;2024-02-21T01:22:26;5.20;;;1.65;;
23543;SDS011;11950;51.230;4.012;2024-02-21T01:24:52;3.08;;;1.80;;
23543;SDS011;11950;51.230;4.012;2024-02-21T01:27:18;4.55;;;1.90;;
23543;SDS011;11950;51.230;4.012;2024-02-21T01:29:45;5.43;;;2.28;;
23543;SDS011;11950;51.230;4.012;2024-02-21T01:32:13;4.45;;;2.67;;
23543;SDS011;11950;51.230;4.012;2024-02-21T01:34:39;7.85;;;2.35;;
23543;SDS011;11950;51.230;4.012;2024-02-21T01:37:05;8.25;;;3.35;;
23543;SDS011;11950;51.230;4.012;2024-02-21T01:39:33;8.30;;;3.15;;
23543;SDS011;11950;51.230;4.012;2024-02-21T01:41:59;7.20;;;3.40;;
23543;SDS011;11950;51.230;4.012;2024-02-21T01:44:26;6.07;;;2.88;;
23543;SDS011;11950;51.230;4.012;2024-02-21T01:46:52;8.52;;;2.97;;
23543;SDS011;11950;51.230;4.012;2024-02-21T01:49:19;6.50;;;3.30;;
23543;SDS011;11950;51.230;4.012;2024-02-21T01:51:47;6.50;;;3.40;;
23543;SDS011;11950;51.230;4.012;2024-02-21T01:54:14;7.90;;;3.58;;
23543;SDS011;11950;51.230;4.012;2024-02-21T01:56:42;6.53;;;3.80;;
23543;SDS011;11950;51.230;4.012;2024-02-21T01:59:09;9.52;;;3.63;;
23543;SDS011;11950;51.230;4.012;2024-02-21T02:01:35;8.63;;;3.83;;
23543;SDS011;11950;51.230;4.012;2024-02-21T02:04:02;8.40;;;3.55;;
23543;SDS011;11950;51.230;4.012;2024-02-21T02:06:30;6.65;;;3.33;;
23543;SDS011;11950;51.230;4.012;2024-02-21T02:08:57;9.73;;;4.35;;
23543;SDS011;11950;51.230;4.012;2024-02-21T02:11:23;8.90;;;3.28;;
23543;SDS011;11950;51.230;4.012;2024-02-21T02:13:50;7.68;;;3.58;;
23543;SDS011;11950;51.230;4.012;2024-02-21T02:16:16;9.93;;;3.50;;
23543;SDS011;11950;51.230;4.012;2024-02-21T02:18:42;8.88;;;3.55;;
23543;SDS011;11950;51.230;4.012;2024-02-21T02:21:10;9.95;;;3.25;;
23543;SDS011;11950;51.230;4.012;2024-02-21T02:23:48;7.88;;;3.35;;
23543;SDS011;11950;51.230;4.012;2024-02-21T02:26:15;10.23;;;3.67;;
23543;SDS011;11950;51.230;4.012;2024-02-21T02:28:41;7.32;;;3.58;;
23543;SDS011;11950;51.230;4.012;2024-02-21T02:31:07;10.45;;;3.65;;
23543;SDS011;11950;51.230;4.012;2024-02-21T02:33:33;9.50;;;3.90;;
23543;SDS011;11950;51.230;4.012;2024-02-21T02:36:00;9.13;;;3.60;;
23543;SDS011;11950;51.230;4.012;2024-02-21T02:38:26;10.18;;;3.80;;
23543;SDS011;11950;51.230;4.012;2024-02-21T02:40:52;11.57;;;4.60;;
23543;SDS011;11950;51.230;4.012;2024-02-21T02:43:18;8.98;;;3.88;;
23543;SDS011;11950;51.230;4.012;2024-02-21T02:45:44;9.85;;;3.80;;
23543;SDS011;11950;51.230;4.012;2024-02-21T02:48:11;10.02;;;4.03;;
23543;SDS011;11950;51.230;4.012;2024-02-21T02:50:37;11.52;;;3.67;;
23543;SDS011;11950;51.230;4.012;2024-02-21T02:53:03;10.82;;;3.92;;
23543;SDS011;11950;51.230;4.012;2024-02-21T02:55:29;14.23;;;3.67;;
23543;SDS011;11950;51.230;4.012;2024-02-21T02:57:56;7.72;;;3.53;;
23543;SDS011;11950;51.230;4.012;2024-02-21T03:00:22;12.88;;;4.63;;
23543;SDS011;11950;51.230;4.012;2024-02-21T03:02:49;9.90;;;3.45;;
23543;SDS011;11950;51.230;4.012;2024-02-21T03:05:17;11.32;;;3.47;;
23543;SDS011;11950;51.230;4.012;2024-02-21T03:07:44;12.25;;;4.13;;
23543;SDS011;11950;51.230;4.012;2024-02-21T03:10:11;8.43;;;3.95;;
23543;SDS011;11950;51.230;4.012;2024-02-21T03:12:38;7.22;;;4.10;;
23543;SDS011;11950;51.230;4.012;2024-02-21T03:15:05;8.30;;;3.28;;
23543;SDS011;11950;51.230;4.012;2024-02-21T03:17:31;9.20;;;3.60;;
23543;SDS011;11950;51.230;4.012;2024-02-21T03:20:00;11.45;;;4.53;;
23543;SDS011;11950;51.230;4.012;2024-02-21T03:22:35;11.60;;;4.22;;
23543;SDS011;11950;51.230;4.012;2024-02-21T03:25:02;13.02;;;5.00;;
23543;SDS011;11950;51.230;4.012;2024-02-21T03:27:29;12.27;;;4.30;;
23543;SDS011;11950;51.230;4.012;2024-02-21T03:29:55;14.95;;;4.35;;
23543;SDS011;11950;51.230;4.012;2024-02-21T03:32:21;14.85;;;4.88;;
23543;SDS011;11950;51.230;4.012;2024-02-21T03:34:47;14.15;;;5.00;;
23543;SDS011;11950;51.230;4.012;2024-02-21T03:37:14;9.23;;;4.13;;
23543;SDS011;11950;51.230;4.012;2024-02-21T03:39:40;14.30;;;4.85;;
23543;SDS011;11950;51.230;4.012;2024-02-21T03:42:07;17.83;;;5.60;;
23543;SDS011;11950;51.230;4.012;2024-02-21T03:44:33;13.38;;;4.97;;
23543;SDS011;11950;51.230;4.012;2024-02-21T03:47:00;11.35;;;5.10;;
23543;SDS011;11950;51.230;4.012;2024-02-21T03:49:26;15.15;;;5.32;;
23543;SDS011;11950;51.230;4.012;2024-02-21T03:51:52;14.60;;;5.50;;
23543;SDS011;11950;51.230;4.012;2024-02-21T03:54:19;10.93;;;5.35;;
23543;SDS011;11950;51.230;4.012;2024-02-21T03:56:45;14.30;;;5.20;;
23543;SDS011;11950;51.230;4.012;2024-02-21T03:59:14;18.10;;;5.18;;
23543;SDS011;11950;51.230;4.012;2024-02-21T04:01:41;11.32;;;4.72;;
23543;SDS011;11950;51.230;4.012;2024-02-21T04:04:07;10.38;;;5.28;;
23543;SDS011;11950;51.230;4.012;2024-02-21T04:06:33;17.45;;;5.55;;
23543;SDS011;11950;51.230;4.012;2024-02-21T04:08:59;17.23;;;5.70;;
23543;SDS011;11950;51.230;4.012;2024-02-21T04:11:26;14.68;;;5.80;;
23543;SDS011;11950;51.230;4.012;2024-02-21T04:13:52;16.80;;;4.97;;
23543;SDS011;11950;51.230;4.012;2024-02-21T04:16:18;12.95;;;5.38;;
23543;SDS011;11950;51.230;4.012;2024-02-21T04:18:44;14.13;;;5.22;;
23543;SDS011;11950;51.230;4.012;2024-02-21T04:21:14;17.85;;;5.63;;
23543;SDS011;11950;51.230;4.012;2024-02-21T04:23:41;18.45;;;5.45;;
23543;SDS011;11950;51.230;4.012;2024-02-21T04:26:08;15.23;;;6.10;;
23543;SDS011;11950;51.230;4.012;2024-02-21T04:28:34;14.43;;;5.40;;
23543;SDS011;11950;51.230;4.012;2024-02-21T04:31:00;15.82;;;5.75;;
23543;SDS011;11950;51.230;4.012;2024-02-21T04:33:27;12.38;;;5.05;;
23543;SDS011;11950;51.230;4.012;2024-02-21T04:35:53;14.18;;;5.72;;
23543;SDS011;11950;51.230;4.012;2024-02-21T04:38:20;18.48;;;6.45;;
23543;SDS011;11950;51.230;4.012;2024-02-21T04:40:47;13.63;;;5.88;;
23543;SDS011;11950;51.230;4.012;2024-02-21T04:43:13;15.98;;;5.85;;
23543;SDS011;11950;51.230;4.012;2024-02-21T04:45:39;11.15;;;5.13;;
23543;SDS011;11950;51.230;4.012;2024-02-21T04:48:06;15.20;;;6.97;;
23543;SDS011;11950;51.230;4.012;2024-02-21T04:50:32;13.50;;;6.47;;
23543;SDS011;11950;51.230;4.012;2024-02-21T04:52:58;13.25;;;5.90;;
23543;SDS011;11950;51.230;4.012;2024-02-21T04:55:25;14.95;;;5.72;;
23543;SDS011;11950;51.230;4.012;2024-02-21T04:57:51;14.65;;;6.70;;
23543;SDS011;11950;51.230;4.012;2024-02-21T05:00:17;14.13;;;6.65;;
23543;SDS011;11950;51.230;4.012;2024-02-21T05:02:44;13.73;;;6.82;;
23543;SDS011;11950;51.230;4.012;2024-02-21T05:05:10;16.85;;;7.10;;
23543;SDS011;11950;51.230;4.012;2024-02-21T05:07:36;18.10;;;6.30;;
23543;SDS011;11950;51.230;4.012;2024-02-21T05:10:02;15.45;;;6.78;;
23543;SDS011;11950;51.230;4.012;2024-02-21T05:12:29;15.55;;;6.97;;
23543;SDS011;11950;51.230;4.012;2024-02-21T05:14:55;13.90;;;5.95;;
23543;SDS011;11950;51.230;4.012;2024-02-21T05:17:22;15.23;;;6.53;;
23543;SDS011;11950;51.230;4.012;2024-02-21T05:19:48;13.95;;;6.55;;
23543;SDS011;11950;51.230;4.012;2024-02-21T05:22:14;16.15;;;6.57;;
23543;SDS011;11950;51.230;4.012;2024-02-21T05:24:40;14.23;;;6.32;;
23543;SDS011;11950;51.230;4.012;2024-02-21T05:27:07;17.75;;;6.40;;
23543;SDS011;11950;51.230;4.012;2024-02-21T05:29:33;17.67;;;6.40;;
23543;SDS011;11950;51.230;4.012;2024-02-21T05:32:00;15.50;;;6.95;;
23543;SDS011;11950;51.230;4.012;2024-02-21T05:34:26;17.80;;;7.00;;
23543;SDS011;11950;51.230;4.012;2024-02-21T05:36:52;15.48;;;6.82;;
23543;SDS011;11950;51.230;4.012;2024-02-21T05:39:19;13.70;;;6.68;;
23543;SDS011;11950;51.230;4.012;2024-02-21T05:41:48;17.48;;;6.57;;
23543;SDS011;11950;51.230;4.012;2024-02-21T05:44:15;18.25;;;6.75;;
23543;SDS011;11950;51.230;4.012;2024-02-21T05:46:41;14.60;;;6.70;;
23543;SDS011;11950;51.230;4.012;2024-02-21T05:49:07;15.93;;;6.10;;
23543;SDS011;11950;51.230;4.012;2024-02-21T05:51:34;15.18;;;6.70;;
23543;SDS011;11950;51.230;4.012;2024-02-21T05:54:01;15.27;;;7.55;;
23543;SDS011;11950;51.230;4.012;2024-02-21T05:56:27;15.55;;;6.78;;
23543;SDS011;11950;51.230;4.012;2024-02-21T05:58:54;15.98;;;5.75;;
23543;SDS011;11950;51.230;4.012;2024-02-21T06:01:20;20.10;;;6.95;;
23543;SDS011;11950;51.230;4.012;2024-02-21T06:03:49;12.77;;;6.95;;
23543;SDS011;11950;51.230;4.012;2024-02-21T06:06:16;18.25;;;5.82;;
23543;SDS011;11950;51.230;4.012;2024-02-21T06:08:42;18.35;;;6.97;;
23543;SDS011;11950;51.230;4.012;2024-02-21T06:11:08;13.15;;;7.45;;
23543;SDS011;11950;51.230;4.012;2024-02-21T06:13:37;15.93;;;6.60;;
23543;SDS011;11950;51.230;4.012;2024-02-21T06:16:05;17.48;;;7.20;;
23543;SDS011;11950;51.230;4.012;2024-02-21T06:18:32;13.70;;;7.10;;
23543;SDS011;11950;51.230;4.012;2024-02-21T06:20:59;11.77;;;6.68;;
23543;SDS011;11950;51.230;4.012;2024-02-21T06:23:26;13.77;;;6.80;;
23543;SDS011;11950;51.230;4.012;2024-02-21T06:25:52;13.32;;;6.45;;
23543;SDS011;11950;51.230;4.012;2024-02-21T06:28:18;17.15;;;6.88;;
23543;SDS011;11950;51.230;4.012;2024-02-21T06:30:46;20.75;;;7.68;;
23543;SDS011;11950;51.230;4.012;2024-02-21T06:33:12;12.00;;;7.07;;
23543;SDS011;11950;51.230;4.012;2024-02-21T06:35:38;12.15;;;6.78;;
23543;SDS011;11950;51.230;4.012;2024-02-21T06:38:06;11.25;;;7.00;;
23543;SDS011;11950;51.230;4.012;2024-02-21T06:40:32;12.65;;;6.78;;
23543;SDS011;11950;51.230;4.012;2024-02-21T06:45:30;11.98;;;7.05;;
23543;SDS011;11950;51.230;4.012;2024-02-21T06:47:57;15.43;;;7.10;;
23543;SDS011;11950;51.230;4.012;2024-02-21T06:50:23;16.60;;;7.20;;
23543;SDS011;11950;51.230;4.012;2024-02-21T06:52:49;12.73;;;7.60;;
23543;SDS011;11950;51.230;4.012;2024-02-21T06:55:16;18.15;;;7.78;;
23543;SDS011;11950;51.230;4.012;2024-02-21T06:57:42;17.38;;;7.70;;
23543;SDS011;11950;51.230;4.012;2024-02-21T07:00:09;14.25;;;7.25;;
23543;SDS011;11950;51.230;4.012;2024-02-21T07:02:35;16.48;;;8.48;;
23543;SDS011;11950;51.230;4.012;2024-02-21T07:05:02;19.08;;;8.18;;
23543;SDS011;11950;51.230;4.012;2024-02-21T07:07:28;14.23;;;7.50;;
23543;SDS011;11950;51.230;4.012;2024-02-21T07:09:55;13.15;;;7.78;;
23543;SDS011;11950;51.230;4.012;2024-02-21T07:12:21;16.00;;;7.95;;
23543;SDS011;11950;51.230;4.012;2024-02-21T07:14:47;17.48;;;7.85;;
23543;SDS011;11950;51.230;4.012;2024-02-21T07:17:14;15.23;;;8.57;;
23543;SDS011;11950;51.230;4.012;2024-02-21T07:19:40;18.17;;;8.15;;
23543;SDS011;11950;51.230;4.012;2024-02-21T07:22:06;14.40;;;7.53;;
23543;SDS011;11950;51.230;4.012;2024-02-21T07:24:32;14.32;;;7.35;;
23543;SDS011;11950;51.230;4.012;2024-02-21T07:26:59;15.23;;;7.60;;
23543;SDS011;11950;51.230;4.012;2024-02-21T07:29:30;10.38;;;7.40;;
23543;SDS011;11950;51.230;4.012;2024-02-21T07:31:56;14.27;;;7.55;;
23543;SDS011;11950;51.230;4.012;2024-02-21T07:34:22;13.85;;;7.05;;
23543;SDS011;11950;51.230;4.012;2024-02-21T07:36:49;13.85;;;7.40;;
23543;SDS011;11950;51.230;4.012;2024-02-21T07:39:15;13.40;;;7.22;;
23543;SDS011;11950;51.230;4.012;2024-02-21T07:41:42;13.00;;;7.15;;
23543;SDS011;11950;51.230;4.012;2024-02-21T07:44:10;14.38;;;7.45;;
23543;SDS011;11950;51.230;4.012;2024-02-21T07:46:36;16.13;;;7.53;;
23543;SDS011;11950;51.230;4.012;2024-02-21T07:49:03;13.00;;;7.15;;
23543;SDS011;11950;51.230;4.012;2024-02-21T07:51:29;14.27;;;7.32;;
23543;SDS011;11950;51.230;4.012;2024-02-21T07:53:55;12.93;;;7.00;;
23543;SDS011;11950;51.230;4.012;2024-02-21T07:56:21;14.07;;;7.03;;
23543;SDS011;11950;51.230;4.012;2024-02-21T07:58:48;13.18;;;7.32;;
23543;SDS011;11950;51.230;4.012;2024-02-21T08:01:20;11.13;;;7.00;;
23543;SDS011;11950;51.230;4.012;2024-02-21T08:03:47;11.93;;;7.38;;
23543;SDS011;11950;51.230;4.012;2024-02-21T08:06:13;12.77;;;7.05;;
23543;SDS011;11950;51.230;4.012;2024-02-21T08:08:40;12.38;;;6.72;;
23543;SDS011;11950;51.230;4.012;2024-02-21T08:11:06;14.55;;;6.95;;
23543;SDS011;11950;51.230;4.012;2024-02-21T08:13:32;12.25;;;7.18;;
23543;SDS011;11950;51.230;4.012;2024-02-21T08:15:59;11.48;;;6.88;;
23543;SDS011;11950;51.230;4.012;2024-02-21T08:18:25;11.35;;;6.63;;
23543;SDS011;11950;51.230;4.012;2024-02-21T08:20:51;13.65;;;6.60;;
23543;SDS011;11950;51.230;4.012;2024-02-21T08:23:18;9.88;;;6.95;;
23543;SDS011;11950;51.230;4.012;2024-02-21T08:25:44;14.65;;;7.47;;
23543;SDS011;11950;51.230;4.012;2024-02-21T08:28:11;10.55;;;7.40;;
23543;SDS011;11950;51.230;4.012;2024-02-21T08:30:38;9.68;;;7.00;;
23543;SDS011;11950;51.230;4.012;2024-02-21T08:33:04;10.40;;;6.85;;
23543;SDS011;11950;51.230;4.012;2024-02-21T08:35:31;12.75;;;7.82;;
23543;SDS011;11950;51.230;4.012;2024-02-21T08:37:57;10.63;;;7.22;;
23543;SDS011;11950;51.230;4.012;2024-02-21T08:40:23;10.40;;;6.75;;
23543;SDS011;11950;51.230;4.012;2024-02-21T08:42:50;12.43;;;6.88;;
23543;SDS011;11950;51.230;4.012;2024-02-21T08:45:16;10.00;;;6.72;;
23543;SDS011;11950;51.230;4.012;2024-02-21T08:47:42;11.00;;;6.80;;
23543;SDS011;11950;51.230;4.012;2024-02-21T08:50:08;10.52;;;6.50;;
23543;SDS011;11950;51.230;4.012;2024-02-21T08:52:35;11.60;;;7.50;;
23543;SDS011;11950;51.230;4.012;2024-02-21T08:55:02;12.70;;;6.88;;
23543;SDS011;11950;51.230;4.012;2024-02-21T08:57:28;13.35;;;7.50;;
23543;SDS011;11950;51.230;4.012;2024-02-21T08:59:55;11.90;;;6.72;;
23543;SDS011;11950;51.230;4.012;2024-02-21T09:02:21;12.48;;;6.82;;
23543;SDS011;11950;51.230;4.012;2024-02-21T09:04:47;11.45;;;7.47;;
23543;SDS011;11950;51.230;4.012;2024-02-21T09:07:13;12.68;;;7.20;;
23543;SDS011;11950;51.230;4.012;2024-02-21T09:09:39;12.18;;;7.60;;
23543;SDS011;11950;51.230;4.012;2024-02-21T09:12:06;12.80;;;6.88;;
23543;SDS011;11950;51.230;4.012;2024-02-21T09:14:33;10.98;;;7.07;;
23543;SDS011;11950;51.230;4.012;2024-02-21T09:16:59;15.52;;;7.70;;
23543;SDS011;11950;51.230;4.012;2024-02-21T09:19:25;15.20;;;7.47;;
23543;SDS011;11950;51.230;4.012;2024-02-21T09:21:52;12.13;;;6.75;;
23543;SDS011;11950;51.230;4.012;2024-02-21T09:24:18;11.55;;;7.05;;
23543;SDS011;11950;51.230;4.012;2024-02-21T09:26:44;15.48;;;7.57;;
23543;SDS011;11950;51.230;4.012;2024-02-21T09:29:11;12.88;;;7.10;;
23543;SDS011;11950;51.230;4.012;2024-02-21T09:31:37;11.30;;;6.80;;
23543;SDS011;11950;51.230;4.012;2024-02-21T09:34:04;12.80;;;6.88;;
23543;SDS011;11950;51.230;4.012;2024-02-21T09:36:30;11.82;;;6.35;;
23543;SDS011;11950;51.230;4.012;2024-02-21T09:38:57;15.00;;;6.30;;
23543;SDS011;11950;51.230;4.012;2024-02-21T09:41:26;12.88;;;6.25;;
23543;SDS011;11950;51.230;4.012;2024-02-21T09:43:55;13.82;;;6.35;;
23543;SDS011;11950;51.230;4.012;2024-02-21T09:49:18;10.73;;;6.05;;
23543;SDS011;11950;51.230;4.012;2024-02-21T09:52:01;13.07;;;6.15;;
23543;SDS011;11950;51.230;4.012;2024-02-21T09:54:29;8.95;;;6.05;;
23543;SDS011;11950;51.230;4.012;2024-02-21T09:57:02;15.60;;;5.85;;
23543;SDS011;11950;51.230;4.012;2024-02-21T09:59:31;12.35;;;5.85;;
23543;SDS011;11950;51.230;4.012;2024-02-21T10:01:58;9.73;;;5.40;;
23543;SDS011;11950;51.230;4.012;2024-02-21T10:04:28;9.23;;;5.28;;
23543;SDS011;11950;51.230;4.012;2024-02-21T10:06:55;8.15;;;5.07;;
23543;SDS011;11950;51.230;4.012;2024-02-21T10:09:22;8.32;;;4.97;;
23543;SDS011;11950;51.230;4.012;2024-02-21T10:11:53;13.88;;;4.72;;
23543;SDS011;11950;51.230;4.012;2024-02-21T10:14:20;9.23;;;4.60;;
23543;SDS011;11950;51.230;4.012;2024-02-21T10:16:47;10.18;;;5.57;;
23543;SDS011;11950;51.230;4.012;2024-02-21T10:19:18;12.25;;;5.13;;
23543;SDS011;11950;51.230;4.012;2024-02-21T10:24:43;7.68;;;4.72;;
23543;SDS011;11950;51.230;4.012;2024-02-21T10:27:10;12.85;;;5.00;;
23543;SDS011;11950;51.230;4.012;2024-02-21T10:29:37;7.90;;;4.70;;
23543;SDS011;11950;51.230;4.012;2024-02-21T10:32:08;6.93;;;4.25;;
23543;SDS011;11950;51.230;4.012;2024-02-21T10:34:36;8.73;;;4.40;;
23543;SDS011;11950;51.230;4.012;2024-02-21T10:37:04;6.03;;;4.28;;
23543;SDS011;11950;51.230;4.012;2024-02-21T10:39:36;8.35;;;4.20;;
23543;SDS011;11950;51.230;4.012;2024-02-21T10:42:06;5.78;;;3.78;;
23543;SDS011;11950;51.230;4.012;2024-02-21T10:44:39;5.60;;;3.35;;
23543;SDS011;11950;51.230;4.012;2024-02-21T10:47:09;8.75;;;3.80;;
23543;SDS011;11950;51.230;4.012;2024-02-21T10:49:38;9.32;;;4.35;;
23543;SDS011;11950;51.230;4.012;2024-02-21T10:52:08;8.32;;;4.05;;
23543;SDS011;11950;51.230;4.012;2024-02-21T10:54:53;8.10;;;3.83;;
23543;SDS011;11950;51.230;4.012;2024-02-21T10:57:29;6.65;;;3.58;;
23543;SDS011;11950;51.230;4.012;2024-02-21T10:59:58;7.68;;;4.00;;
23543;SDS011;11950;51.230;4.012;2024-02-21T11:02:25;9.48;;;4.15;;
23543;SDS011;11950;51.230;4.012;2024-02-21T11:04:54;8.75;;;4.15;;
23543;SDS011;11950;51.230;4.012;2024-02-21T11:07:21;9.85;;;4.20;;
23543;SDS011;11950;51.230;4.012;2024-02-21T11:09:51;8.25;;;3.78;;
23543;SDS011;11950;51.230;4.012;2024-02-21T11:12:21;11.85;;;4.13;;
23543;SDS011;11950;51.230;4.012;2024-02-21T11:14:49;10.30;;;4.30;;
23543;SDS011;11950;51.230;4.012;2024-02-21T11:17:15;6.72;;;3.78;;
23543;SDS011;11950;51.230;4.012;2024-02-21T11:19:43;5.95;;;3.90;;
23543;SDS011;11950;51.230;4.012;2024-02-21T11:22:16;6.80;;;3.80;;
23543;SDS011;11950;51.230;4.012;2024-02-21T11:24:43;9.50;;;4.20;;
23543;SDS011;11950;51.230;4.012;2024-02-21T11:27:14;8.43;;;3.72;;
23543;SDS011;11950;51.230;4.012;2024-02-21T11:29:45;8.00;;;3.78;;
23543;SDS011;11950;51.230;4.012;2024-02-21T11:32:17;7.25;;;4.18;;
23543;SDS011;11950;51.230;4.012;2024-02-21T11:37:24;4.18;;;3.47;;
23543;SDS011;11950;51.230;4.012;2024-02-21T11:39:53;11.50;;;3.85;;
23543;SDS011;11950;51.230;4.012;2024-02-21T11:42:20;7.97;;;3.53;;
23543;SDS011;11950;51.230;4.012;2024-02-21T11:44:46;7.93;;;3.88;;
23543;SDS011;11950;51.230;4.012;2024-02-21T11:47:13;7.43;;;4.10;;
23543;SDS011;11950;51.230;4.012;2024-02-21T11:49:47;9.20;;;4.13;;
23543;SDS011;11950;51.230;4.012;2024-02-21T11:52:23;4.30;;;3.30;;
23543;SDS011;11950;51.230;4.012;2024-02-21T11:54:54;8.02;;;3.35;;
23543;SDS011;11950;51.230;4.012;2024-02-21T11:57:22;7.60;;;4.05;;
23543;SDS011;11950;51.230;4.012;2024-02-21T11:59:48;6.65;;;3.75;;
23543;SDS011;11950;51.230;4.012;2024-02-21T12:02:17;7.22;;;3.92;;
23543;SDS011;11950;51.230;4.012;2024-02-21T12:04:44;10.07;;;4.65;;
23543;SDS011;11950;51.230;4.012;2024-02-21T12:07:10;7.55;;;3.67;;
23543;SDS011;11950;51.230;4.012;2024-02-21T12:09:37;6.70;;;3.72;;
23543;SDS011;11950;51.230;4.012;2024-02-21T12:12:04;5.90;;;3.50;;
23543;SDS011;11950;51.230;4.012;2024-02-21T12:14:32;6.93;;;4.05;;
23543;SDS011;11950;51.230;4.012;2024-02-21T12:16:59;7.50;;;4.38;;
23543;SDS011;11950;51.230;4.012;2024-02-21T12:19:30;5.60;;;3.35;;
23543;SDS011;11950;51.230;4.012;2024-02-21T12:22:00;8.95;;;3.78;;
23543;SDS011;11950;51.230;4.012;2024-02-21T12:24:28;5.20;;;3.25;;
23543;SDS011;11950;51.230;4.012;2024-02-21T12:26:55;5.28;;;3.63;;
23543;SDS011;11950;51.230;4.012;2024-02-21T12:29:25;6.47;;;3.60;;
23543;SDS011;11950;51.230;4.012;2024-02-21T12:31:51;6.80;;;3.80;;
23543;SDS011;11950;51.230;4.012;2024-02-21T12:34:19;6.00;;;3.75;;
23543;SDS011;11950;51.230;4.012;2024-02-21T12:36:46;6.28;;;3.80;;
23543;SDS011;11950;51.230;4.012;2024-02-21T12:39:13;7.55;;;4.25;;
23543;SDS011;11950;51.230;4.012;2024-02-21T12:41:39;5.75;;;3.65;;
23543;SDS011;11950;51.230;4.012;2024-02-21T12:44:10;7.40;;;3.97;;
23543;SDS011;11950;51.230;4.012;2024-02-21T12:46:37;7.22;;;4.35;;
23543;SDS011;11950;51.230;4.012;2024-02-21T12:49:05;5.57;;;4.45;;
23543;SDS011;11950;51.230;4.012;2024-02-21T12:51:33;8.00;;;4.28;;
23543;SDS011;11950;51.230;4.012;2024-02-21T12:54:01;5.80;;;4.43;;
23543;SDS011;11950;51.230;4.012;2024-02-21T12:56:28;5.45;;;4.00;;
23543;SDS011;11950;51.230;4.012;2024-02-21T12:58:57;7.05;;;4.47;;
23543;SDS011;11950;51.230;4.012;2024-02-21T13:01:23;5.60;;;4.10;;
23543;SDS011;11950;51.230;4.012;2024-02-21T13:03:50;5.85;;;4.20;;
23543;SDS011;11950;51.230;4.012;2024-02-21T13:06:16;6.45;;;4.50;;
23543;SDS011;11950;51.230;4.012;2024-02-21T13:08:42;7.53;;;4.53;;
23543;SDS011;11950;51.230;4.012;2024-02-21T13:11:11;7.55;;;4.10;;
23543;SDS011;11950;51.230;4.012;2024-02-21T13:13:38;5.13;;;3.58;;
23543;SDS011;11950;51.230;4.012;2024-02-21T13:16:04;5.43;;;4.00;;
23543;SDS011;11950;51.230;4.012;2024-02-21T13:18:31;6.88;;;3.42;;
23543;SDS011;11950;51.230;4.012;2024-02-21T13:20:58;5.97;;;3.75;;
23543;SDS011;11950;51.230;4.012;2024-02-21T13:23:24;3.88;;;3.58;;
23543;SDS011;11950;51.230;4.012;2024-02-21T13:25:50;6.88;;;3.40;;
23543;SDS011;11950;51.230;4.012;2024-02-21T13:28:17;3.72;;;3.20;;
23543;SDS011;11950;51.230;4.012;2024-02-21T13:30:43;6.90;;;3.47;;
23543;SDS011;11950;51.230;4.012;2024-02-21T13:33:09;4.15;;;3.03;;
23543;SDS011;11950;51.230;4.012;2024-02-21T13:35:35;6.43;;;3.40;;
23543;SDS011;11950;51.230;4.012;2024-02-21T13:38:02;3.15;;;2.85;;
23543;SDS011;11950;51.230;4.012;2024-02-21T13:40:29;5.40;;;3.47;;
23543;SDS011;11950;51.230;4.012;2024-02-21T13:42:56;6.97;;;3.40;;
23543;SDS011;11950;51.230;4.012;2024-02-21T13:45:22;4.85;;;3.50;;
23543;SDS011;11950;51.230;4.012;2024-02-21T13:47:48;5.82;;;3.58;;
23543;SDS011;11950;51.230;4.012;2024-02-21T13:50:14;4.90;;;3.35;;
23543;SDS011;11950;51.230;4.012;2024-02-21T13:52:41;8.70;;;3.47;;
23543;SDS011;11950;51.230;4.012;2024-02-21T13:55:07;6.38;;;3.60;;
23543;SDS011;11950;51.230;4.012;2024-02-21T13:57:36;6.18;;;3.60;;
23543;SDS011;11950;51.230;4.012;2024-02-21T14:00:03;7.68;;;4.15;;
23543;SDS011;11950;51.230;4.012;2024-02-21T14:02:37;8.57;;;3.28;;
23543;SDS011;11950;51.230;4.012;2024-02-21T14:05:04;8.52;;;3.90;;
23543;SDS011;11950;51.230;4.012;2024-02-21T14:07:31;5.53;;;3.75;;
23543;SDS011;11950;51.230;4.012;2024-02-21T14:10:01;7.25;;;3.58;;
23543;SDS011;11950;51.230;4.012;2024-02-21T14:12:29;7.40;;;3.83;;
23543;SDS011;11950;51.230;4.012;2024-02-21T14:14:55;8.27;;;3.83;;
23543;SDS011;11950;51.230;4.012;2024-02-21T14:17:24;6.70;;;3.42;;
23543;SDS011;11950;51.230;4.012;2024-02-21T14:19:50;6.32;;;4.07;;
23543;SDS011;11950;51.230;4.012;2024-02-21T14:22:17;5.70;;;3.42;;
23543;SDS011;11950;51.230;4.012;2024-02-21T14:24:44;8.18;;;4.10;;
23543;SDS011;11950;51.230;4.012;2024-02-21T14:27:11;5.38;;;3.58;;
23543;SDS011;11950;51.230;4.012;2024-02-21T14:29:38;6.57;;;4.13;;
23543;SDS011;11950;51.230;4.012;2024-02-21T14:32:04;7.88;;;4.00;;
23543;SDS011;11950;51.230;4.012;2024-02-21T14:34:31;9.45;;;3.88;;
23543;SDS011;11950;51.230;4.012;2024-02-21T14:36:57;6.18;;;3.70;;
23543;SDS011;11950;51.230;4.012;2024-02-21T14:39:24;5.93;;;3.80;;
23543;SDS011;11950;51.230;4.012;2024-02-21T14:41:50;6.80;;;3.50;;
23543;SDS011;11950;51.230;4.012;2024-02-21T14:44:16;5.68;;;3.63;;
23543;SDS011;11950;51.230;4.012;2024-02-21T14:46:42;5.38;;;3.67;;
23543;SDS011;11950;51.230;4.012;2024-02-21T14:49:09;6.80;;;3.92;;
23543;SDS011;11950;51.230;4.012;2024-02-21T14:51:37;7.38;;;3.90;;